Time;durP1;ratioP1;P1;durP2;ratioP2;P2;SDS_P1;SDS_P2;PMS_P1;PMS_P2;Temp;Humidity;BMP_temperature;BMP_pressure;BME280_temperature;BME280_humidity;BME280_pressure;Samples;Min_cycle;Max_cycle;Signal;HPM_P1;HPM_P2
2023/07/18 00:01:46;;;;;;;11.43;4.43;;;13.70;99.90;;;;;;5030802;28;20048;-80
2023/07/18 00:04:12;;;;;;;8.95;4.50;;;13.70;99.90;;;;;;5015334;28;20045;-80
2023/07/18 00:06:41;;;;;;;6.97;4.30;;;13.70;99.90;;;;;;5017269;28;20037;-80
2023/07/18 00:09:07;;;;;;;6.88;3.50;;;13.70;99.90;;;;;;5029059;28;20042;-80
2023/07/18 00:11:33;;;;;;;12.48;4.35;;;13.70;99.90;;;;;;5052349;28;20047;-80
2023/07/18 00:13:59;;;;;;;10.45;4.43;;;13.70;99.90;;;;;;5034543;28;20053;-80
2023/07/18 00:16:25;;;;;;;8.23;3.63;;;13.70;99.90;;;;;;5037305;28;20522;-80
2023/07/18 00:18:52;;;;;;;8.13;4.40;;;13.70;99.90;;;;;;5016186;28;20042;-80
2023/07/18 00:21:18;;;;;;;5.55;3.47;;;13.60;99.90;;;;;;5043128;28;20478;-80
2023/07/18 00:23:43;;;;;;;8.05;3.75;;;13.70;99.90;;;;;;5071377;28;20048;-80
2023/07/18 00:26:09;;;;;;;8.77;4.00;;;13.70;99.90;;;;;;5038218;28;20041;-80
2023/07/18 00:28:35;;;;;;;9.32;4.80;;;13.70;99.90;;;;;;5079256;28;20043;-80
2023/07/18 00:31:03;;;;;;;8.98;3.67;;;13.60;99.90;;;;;;5016366;28;20037;-80
2023/07/18 00:33:28;;;;;;;9.00;3.65;;;13.60;99.90;;;;;;5060726;28;20144;-80
2023/07/18 00:35:54;;;;;;;9.10;3.70;;;13.70;99.90;;;;;;5061221;28;20542;-80
2023/07/18 00:38:20;;;;;;;8.75;4.22;;;13.70;99.90;;;;;;5080791;28;20033;-80
2023/07/18 00:40:49;;;;;;;6.85;3.58;;;13.70;99.90;;;;;;5056805;28;20049;-80
2023/07/18 00:43:15;;;;;;;6.32;3.30;;;13.70;99.90;;;;;;5051192;28;20352;-80
2023/07/18 00:45:43;;;;;;;9.77;4.22;;;13.70;99.90;;;;;;5036041;28;20127;-80
2023/07/18 00:48:09;;;;;;;5.35;3.75;;;13.60;99.90;;;;;;5055563;28;20405;-80
2023/07/18 00:50:36;;;;;;;7.90;4.03;;;13.60;99.90;;;;;;5055358;28;20555;-80
2023/07/18 00:53:02;;;;;;;11.20;4.45;;;13.60;99.90;;;;;;5081343;28;20029;-80
2023/07/18 00:55:28;;;;;;;6.07;3.40;;;13.60;99.90;;;;;;5030098;28;20046;-80
2023/07/18 00:57:55;;;;;;;7.57;3.38;;;13.60;99.90;;;;;;5064997;28;20075;-80
2023/07/18 01:00:22;;;;;;;7.90;3.88;;;13.60;99.90;;;;;;5049922;28;20041;-81
2023/07/18 01:02:50;;;;;;;10.88;3.90;;;13.60;99.90;;;;;;5014701;28;20030;-80
2023/07/18 01:05:17;;;;;;;6.45;3.53;;;13.50;99.90;;;;;;5048783;28;20037;-80
2023/07/18 01:07:44;;;;;;;8.57;3.92;;;13.50;99.90;;;;;;5083775;28;20455;-80
2023/07/18 01:10:18;;;;;;;8.50;4.47;;;13.50;99.90;;;;;;5034538;28;20041;-80
2023/07/18 01:12:44;;;;;;;11.05;4.40;;;13.50;99.90;;;;;;5083471;28;20086;-80
2023/07/18 01:15:12;;;;;;;7.25;3.63;;;13.50;99.90;;;;;;5014108;28;20033;-80
2023/07/18 01:17:49;;;;;;;11.20;4.22;;;13.40;99.90;;;;;;5067050;28;20411;-80
2023/07/18 01:20:22;;;;;;;6.70;3.78;;;13.40;99.90;;;;;;5035329;28;20048;-81
2023/07/18 01:22:50;;;;;;;11.00;4.47;;;13.40;99.90;;;;;;5034422;28;20460;-80
2023/07/18 01:25:16;;;;;;;9.18;4.10;;;13.40;99.90;;;;;;5033953;28;20414;-82
2023/07/18 01:27:43;;;;;;;8.07;4.07;;;13.40;99.90;;;;;;5014176;28;20526;-83
2023/07/18 01:30:09;;;;;;;9.40;4.38;;;13.50;99.90;;;;;;5045252;28;20116;-82
2023/07/18 01:32:35;;;;;;;7.90;4.00;;;13.40;99.90;;;;;;5034627;28;20033;-82
2023/07/18 01:35:05;;;;;;;6.10;3.78;;;13.40;99.90;;;;;;5050550;28;20098;-82
2023/07/18 01:37:37;;;;;;;11.93;4.45;;;13.40;99.90;;;;;;5034109;28;20041;-82
2023/07/18 01:40:12;;;;;;;9.32;4.13;;;13.30;99.90;;;;;;5035584;28;20041;-82
2023/07/18 01:42:39;;;;;;;9.68;4.80;;;13.30;99.90;;;;;;5072407;28;20146;-83
2023/07/18 01:45:06;;;;;;;9.05;4.57;;;13.30;99.90;;;;;;5049442;28;20037;-82
2023/07/18 01:47:32;;;;;;;9.57;4.53;;;13.40;99.90;;;;;;5027631;28;20532;-82
2023/07/18 01:50:03;;;;;;;9.30;4.00;;;13.30;99.90;;;;;;5069586;28;20120;-82
2023/07/18 01:52:29;;;;;;;6.85;3.88;;;13.30;99.90;;;;;;5034841;28;20232;-82
2023/07/18 01:54:59;;;;;;;9.25;4.38;;;13.30;99.90;;;;;;5011143;28;20130;-82
2023/07/18 01:57:43;;;;;;;8.40;4.57;;;13.30;99.90;;;;;;5005861;28;20514;-82
2023/07/18 02:00:11;;;;;;;11.00;4.22;;;13.30;99.90;;;;;;5060341;28;20065;-82
2023/07/18 02:02:41;;;;;;;9.48;4.45;;;13.30;99.90;;;;;;5059723;28;20116;-80
2023/07/18 02:05:07;;;;;;;9.00;4.10;;;13.30;99.90;;;;;;5003257;28;20072;-79
2023/07/18 02:07:34;;;;;;;10.20;4.20;;;13.30;99.90;;;;;;5041241;28;20518;-79
2023/07/18 02:10:00;;;;;;;8.63;4.28;;;13.30;99.90;;;;;;5046524;28;20044;-81
2023/07/18 02:12:26;;;;;;;13.10;5.13;;;13.30;99.90;;;;;;5026063;28;20051;-81
2023/07/18 02:14:52;;;;;;;13.32;5.00;;;13.30;99.90;;;;;;4999121;28;20038;-81
2023/07/18 02:17:18;;;;;;;8.85;4.20;;;13.30;99.90;;;;;;5009646;28;20041;-81
2023/07/18 02:19:44;;;;;;;7.10;4.25;;;13.30;99.90;;;;;;5026893;28;20040;-81
2023/07/18 02:22:10;;;;;;;12.80;4.68;;;13.20;99.90;;;;;;5015246;28;20040;-81
2023/07/18 02:24:36;;;;;;;10.40;4.85;;;13.20;99.90;;;;;;5030040;28;20048;-81
2023/07/18 02:27:02;;;;;;;10.52;4.13;;;13.20;99.90;;;;;;5029029;28;20164;-80
2023/07/18 02:29:28;;;;;;;7.80;3.95;;;13.20;99.90;;;;;;5019036;28;20041;-81
2023/07/18 02:31:54;;;;;;;9.85;5.57;;;13.20;99.90;;;;;;5016266;28;20045;-81
2023/07/18 02:34:19;;;;;;;9.10;4.10;;;13.10;99.90;;;;;;5027145;28;20056;-80
2023/07/18 02:36:45;;;;;;;14.77;5.07;;;13.10;99.90;;;;;;5009796;28;20112;-81
2023/07/18 02:39:11;;;;;;;11.00;4.70;;;13.10;99.90;;;;;;5028755;28;20071;-81
2023/07/18 02:41:37;;;;;;;6.15;3.95;;;13.00;99.90;;;;;;5050250;28;20561;-81
2023/07/18 02:44:06;;;;;;;9.45;4.60;;;13.00;99.90;;;;;;5000543;28;20092;-81
2023/07/18 02:46:32;;;;;;;7.63;4.53;;;13.00;99.90;;;;;;5035200;28;20072;-80
2023/07/18 02:48:57;;;;;;;13.80;4.50;;;13.10;99.90;;;;;;5053402;28;20065;-80
2023/07/18 02:51:23;;;;;;;7.55;4.85;;;13.10;99.90;;;;;;5016012;28;20041;-80
2023/07/18 02:53:50;;;;;;;7.18;4.25;;;13.00;99.90;;;;;;5059174;28;20041;-81
2023/07/18 02:56:16;;;;;;;8.50;4.35;;;13.00;99.90;;;;;;5007589;28;20046;-80
2023/07/18 02:58:41;;;;;;;11.07;4.93;;;13.00;99.90;;;;;;5054521;28;20056;-80
2023/07/18 03:01:07;;;;;;;16.60;6.00;;;13.00;99.90;;;;;;5031005;28;20041;-80
2023/07/18 03:03:40;;;;;;;6.13;3.97;;;13.00;99.90;;;;;;5024195;28;20037;-80
2023/07/18 03:06:07;;;;;;;8.40;4.57;;;13.00;99.90;;;;;;5028261;28;20478;-81
2023/07/18 03:08:33;;;;;;;10.60;4.50;;;13.00;99.90;;;;;;5037740;28;20044;-80
2023/07/18 03:11:00;;;;;;;11.27;4.65;;;13.00;99.90;;;;;;5024284;28;20036;-81
2023/07/18 03:13:26;;;;;;;11.18;5.38;;;13.00;99.90;;;;;;5038583;28;20127;-81
2023/07/18 03:15:52;;;;;;;10.82;5.20;;;13.00;99.90;;;;;;5005753;28;20176;-81
2023/07/18 03:18:17;;;;;;;7.82;4.03;;;13.00;99.90;;;;;;5008916;28;20033;-81
2023/07/18 03:20:43;;;;;;;7.43;3.90;;;12.90;99.90;;;;;;5037133;28;20032;-81
2023/07/18 03:23:09;;;;;;;11.27;4.60;;;13.00;99.90;;;;;;5009735;28;20046;-80
2023/07/18 03:25:35;;;;;;;11.13;4.45;;;13.00;99.90;;;;;;5007065;28;20491;-80
2023/07/18 03:28:00;;;;;;;9.82;4.85;;;12.90;99.90;;;;;;5057308;28;20045;-80
2023/07/18 03:30:26;;;;;;;8.73;4.22;;;12.90;99.90;;;;;;5024485;28;20176;-81
2023/07/18 03:32:52;;;;;;;11.38;4.60;;;12.90;99.90;;;;;;5020986;28;20068;-81
2023/07/18 03:35:18;;;;;;;9.95;4.50;;;12.90;99.90;;;;;;5078194;28;20037;-81
2023/07/18 03:37:44;;;;;;;11.40;4.90;;;12.90;99.90;;;;;;5023522;28;20039;-80
2023/07/18 03:40:11;;;;;;;7.22;4.35;;;12.80;99.90;;;;;;5033785;28;20546;-81
2023/07/18 03:42:37;;;;;;;10.98;5.05;;;12.90;99.90;;;;;;5057983;28;20082;-81
2023/07/18 03:45:04;;;;;;;10.40;5.13;;;12.90;99.90;;;;;;5044902;28;20029;-81
2023/07/18 03:47:31;;;;;;;15.10;4.80;;;12.90;99.90;;;;;;5018866;28;20032;-81
2023/07/18 03:49:57;;;;;;;9.30;4.30;;;12.90;99.90;;;;;;5051242;28;20033;-81
2023/07/18 03:52:23;;;;;;;9.70;4.88;;;12.90;99.90;;;;;;5026307;28;20536;-80
2023/07/18 03:54:49;;;;;;;11.82;4.45;;;12.90;99.90;;;;;;5022445;28;20052;-81
2023/07/18 03:57:14;;;;;;;9.30;4.03;;;12.90;99.90;;;;;;5034209;28;20041;-81
2023/07/18 03:59:40;;;;;;;11.20;4.80;;;12.90;99.90;;;;;;5003300;28;20103;-80
2023/07/18 04:02:06;;;;;;;8.43;4.32;;;12.90;99.90;;;;;;5035755;28;20048;-81
2023/07/18 04:04:31;;;;;;;7.65;4.53;;;12.90;99.90;;;;;;5037916;28;20103;-81
2023/07/18 04:06:57;;;;;;;9.40;4.60;;;12.90;99.90;;;;;;5055343;28;20498;-81
2023/07/18 04:09:23;;;;;;;11.02;4.30;;;12.90;99.90;;;;;;5017797;28;20411;-81
2023/07/18 04:11:49;;;;;;;11.60;4.32;;;12.90;99.90;;;;;;5023602;28;20422;-81
2023/07/18 04:14:14;;;;;;;10.70;4.72;;;13.00;99.90;;;;;;5007568;28;20044;-81
2023/07/18 04:16:40;;;;;;;9.57;4.57;;;13.00;99.90;;;;;;5015288;28;20041;-81
2023/07/18 04:19:08;;;;;;;11.52;4.47;;;13.00;99.90;;;;;;5004951;28;20069;-81
2023/07/18 04:21:33;;;;;;;9.50;3.97;;;13.00;99.90;;;;;;5023695;28;20087;-81
2023/07/18 04:23:59;;;;;;;20.35;5.45;;;13.00;99.90;;;;;;5003743;28;20072;-81
2023/07/18 04:26:25;;;;;;;12.90;4.68;;;13.00;99.90;;;;;;5025905;28;20049;-80
2023/07/18 04:28:51;;;;;;;14.63;4.60;;;13.00;99.90;;;;;;5051731;28;20184;-81
2023/07/18 04:31:16;;;;;;;6.40;3.65;;;13.00;99.90;;;;;;5028408;28;20040;-81
2023/07/18 04:33:42;;;;;;;9.45;4.45;;;13.00;99.90;;;;;;5072962;28;20043;-81
2023/07/18 04:36:08;;;;;;;9.00;3.80;;;13.10;99.90;;;;;;5028649;28;20048;-81
2023/07/18 04:38:35;;;;;;;11.10;4.65;;;13.10;99.90;;;;;;5021411;28;20067;-81
2023/07/18 04:41:02;;;;;;;15.02;4.20;;;13.10;99.90;;;;;;5008562;28;20112;-81
2023/07/18 04:43:28;;;;;;;9.00;3.65;;;13.20;99.90;;;;;;5033044;28;20522;-80
2023/07/18 04:45:54;;;;;;;13.27;4.82;;;13.20;99.90;;;;;;5039055;28;20446;-81
2023/07/18 04:48:20;;;;;;;9.80;3.58;;;13.30;99.90;;;;;;5004317;28;20041;-81
2023/07/18 04:50:52;;;;;;;8.90;4.10;;;13.30;99.90;;;;;;5008723;28;20055;-81
2023/07/18 04:53:17;;;;;;;13.13;4.00;;;13.30;99.90;;;;;;5027846;28;20056;-81
2023/07/18 04:55:45;;;;;;;9.32;4.00;;;13.40;99.90;;;;;;5005803;28;20526;-81
2023/07/18 04:58:11;;;;;;;11.70;3.80;;;13.40;99.90;;;;;;5026122;28;20120;-81
2023/07/18 05:00:36;;;;;;;8.95;4.30;;;13.50;99.90;;;;;;4996635;28;20123;-81
2023/07/18 05:03:02;;;;;;;10.93;3.65;;;13.50;99.90;;;;;;5067162;28;20390;-81
2023/07/18 05:05:29;;;;;;;10.90;3.75;;;13.50;99.90;;;;;;5034536;28;20079;-81
2023/07/18 05:07:58;;;;;;;8.40;3.70;;;13.60;99.90;;;;;;5019386;28;20033;-80
2023/07/18 05:10:24;;;;;;;7.88;3.10;;;13.60;99.90;;;;;;5034995;28;20041;-81
2023/07/18 05:12:52;;;;;;;10.18;3.50;;;13.70;99.90;;;;;;5035006;28;20174;-81
2023/07/18 05:15:18;;;;;;;9.85;3.67;;;13.70;99.90;;;;;;5051171;28;20045;-80
2023/07/18 05:17:44;;;;;;;9.77;3.70;;;13.80;99.90;;;;;;5018759;28;20123;-81
2023/07/18 05:20:10;;;;;;;12.23;3.53;;;13.90;99.90;;;;;;5034365;28;20124;-81
2023/07/18 05:22:38;;;;;;;11.27;4.45;;;14.00;99.90;;;;;;5046936;28;20538;-80
2023/07/18 05:25:04;;;;;;;11.70;3.90;;;14.00;99.90;;;;;;5034963;28;20045;-81
2023/07/18 05:27:30;;;;;;;11.50;3.28;;;14.10;99.90;;;;;;5035049;28;20044;-81
2023/07/18 05:29:56;;;;;;;5.43;3.15;;;14.20;99.90;;;;;;5034041;28;20036;-80
2023/07/18 05:32:22;;;;;;;6.90;3.17;;;14.20;99.90;;;;;;5068593;28;20037;-81
2023/07/18 05:34:49;;;;;;;10.30;3.40;;;14.30;99.90;;;;;;5035393;28;20041;-81
2023/07/18 05:37:16;;;;;;;7.30;3.10;;;14.30;99.90;;;;;;5051488;28;20542;-81
2023/07/18 05:39:41;;;;;;;8.27;2.80;;;14.40;99.90;;;;;;5050636;28;20041;-80
2023/07/18 05:42:07;;;;;;;6.60;2.78;;;14.40;99.90;;;;;;5068123;28;20033;-81
2023/07/18 05:44:33;;;;;;;7.22;3.20;;;14.40;99.90;;;;;;5033660;28;20029;-81
2023/07/18 05:46:59;;;;;;;9.40;3.38;;;14.40;99.90;;;;;;5034317;28;20087;-81
2023/07/18 05:49:25;;;;;;;8.30;3.35;;;14.50;99.90;;;;;;5017300;28;20124;-81
2023/07/18 05:51:52;;;;;;;12.40;3.80;;;14.50;99.90;;;;;;5034363;28;20098;-81
2023/07/18 05:54:17;;;;;;;8.48;3.15;;;14.60;99.90;;;;;;5020899;28;20080;-80
2023/07/18 05:56:43;;;;;;;15.07;3.47;;;14.70;99.90;;;;;;5024387;28;20077;-81
2023/07/18 05:59:09;;;;;;;9.07;3.47;;;14.80;99.90;;;;;;5048124;28;20041;-81
2023/07/18 06:01:35;;;;;;;6.93;3.15;;;14.80;99.90;;;;;;5015118;28;20056;-81
2023/07/18 06:04:01;;;;;;;11.60;3.70;;;14.90;99.90;;;;;;5008610;28;20056;-82
2023/07/18 06:06:26;;;;;;;7.32;2.90;;;14.90;99.90;;;;;;5021353;28;20509;-81
2023/07/18 06:08:52;;;;;;;6.72;3.20;;;15.00;99.90;;;;;;5018311;28;20033;-82
2023/07/18 06:11:18;;;;;;;6.20;3.15;;;15.10;99.90;;;;;;5020568;28;20516;-82
2023/07/18 06:13:44;;;;;;;10.15;3.03;;;15.20;99.90;;;;;;5027928;28;20037;-81
2023/07/18 06:16:10;;;;;;;6.13;3.08;;;15.20;99.90;;;;;;5008461;28;20449;-79
2023/07/18 06:18:36;;;;;;;7.25;3.03;;;15.30;99.90;;;;;;5025140;28;20045;-79
2023/07/18 06:21:05;;;;;;;9.98;3.50;;;15.30;99.90;;;;;;5029727;28;20345;-79
2023/07/18 06:23:31;;;;;;;6.93;3.17;;;15.40;99.90;;;;;;5033738;28;20053;-81
2023/07/18 06:25:56;;;;;;;7.78;2.63;;;15.50;99.90;;;;;;5017617;28;20528;-81
2023/07/18 06:28:22;;;;;;;6.65;2.95;;;15.60;99.90;;;;;;5029318;28;20041;-82
2023/07/18 06:30:54;;;;;;;5.55;3.30;;;15.70;99.90;;;;;;5016154;28;20406;-80
2023/07/18 06:33:20;;;;;;;;;;;15.70;99.90;;;;;;5033502;28;20033;-81
2023/07/18 06:35:57;;;;;;;8.70;3.58;;;15.80;99.90;;;;;;5034037;28;19917;-80
2023/07/18 06:38:24;;;;;;;4.95;3.70;;;15.90;99.90;;;;;;5033703;28;20044;-81
2023/07/18 06:40:50;;;;;;;7.30;3.10;;;16.10;99.90;;;;;;5033812;28;20517;-82
2023/07/18 06:43:16;;;;;;;10.00;3.60;;;16.20;99.90;;;;;;5083140;28;20028;-81
2023/07/18 06:45:46;;;;;;;4.80;2.88;;;16.30;99.90;;;;;;5082740;28;20041;-82
2023/07/18 06:48:15;;;;;;;9.85;3.08;;;16.40;99.90;;;;;;5013981;28;20037;-82
2023/07/18 06:50:52;;;;;;;8.27;3.20;;;16.50;99.90;;;;;;5065313;28;20037;-82
2023/07/18 06:53:20;;;;;;;9.45;3.08;;;16.50;99.90;;;;;;5010897;28;20272;-82
2023/07/18 06:55:50;;;;;;;8.32;3.42;;;16.50;99.90;;;;;;5050067;28;20494;-82
2023/07/18 06:58:16;;;;;;;11.18;3.65;;;16.60;99.90;;;;;;5050151;28;20037;-83
2023/07/18 07:00:43;;;;;;;10.63;2.90;;;16.70;99.90;;;;;;5045245;28;20112;-82
2023/07/18 07:03:08;;;;;;;9.13;3.20;;;16.80;99.90;;;;;;5013654;28;20034;-82
2023/07/18 07:05:38;;;;;;;12.55;3.13;;;16.90;99.90;;;;;;5048043;28;20109;-83
2023/07/18 07:08:08;;;;;;;8.98;3.08;;;16.90;99.90;;;;;;5032666;28;20116;-84
2023/07/18 07:10:38;;;;;;;6.15;3.13;;;17.00;99.90;;;;;;5074852;28;20386;-82
2023/07/18 07:13:04;;;;;;;8.50;3.05;;;17.20;99.90;;;;;;5031968;28;20055;-83
2023/07/18 07:15:31;;;;;;;10.32;3.28;;;17.30;99.90;;;;;;5027952;28;20033;-82
2023/07/18 07:17:57;;;;;;;6.30;4.07;;;17.50;99.90;;;;;;5044729;28;20283;-83
2023/07/18 07:20:24;;;;;;;9.60;3.13;;;17.50;99.90;;;;;;5030132;28;20117;-83
2023/07/18 07:22:52;;;;;;;9.50;3.65;;;17.50;99.90;;;;;;5026246;28;20064;-83
2023/07/18 07:25:19;;;;;;;7.85;3.50;;;17.50;99.90;;;;;;5030100;28;20388;-83
2023/07/18 07:27:46;;;;;;;6.82;3.13;;;17.60;99.90;;;;;;5023574;28;20101;-82
2023/07/18 07:30:15;;;;;;;8.02;2.83;;;17.70;99.90;;;;;;5028058;28;20024;-82
2023/07/18 07:32:50;;;;;;;10.93;3.22;;;17.90;99.90;;;;;;5021817;28;20102;-82
2023/07/18 07:35:18;;;;;;;9.00;3.45;;;18.00;99.90;;;;;;5044413;28;20048;-82
2023/07/18 07:37:45;;;;;;;6.75;3.53;;;18.10;99.90;;;;;;5027894;28;20040;-82
2023/07/18 07:40:11;;;;;;;9.63;3.55;;;18.20;99.90;;;;;;5045411;28;20131;-83
2023/07/18 07:42:38;;;;;;;9.70;3.78;;;18.20;99.90;;;;;;5025519;28;20113;-83
2023/07/18 07:45:05;;;;;;;11.85;3.25;;;18.40;99.90;;;;;;5008010;28;20906;-82
2023/07/18 07:47:31;;;;;;;9.10;3.70;;;18.40;99.90;;;;;;5027505;28;20040;-82
2023/07/18 07:49:56;;;;;;;9.95;3.40;;;18.50;99.90;;;;;;5043741;28;20029;-82
2023/07/18 07:52:22;;;;;;;10.20;4.95;;;18.60;99.90;;;;;;5028430;28;20078;-82
2023/07/18 07:54:48;;;;;;;15.90;3.85;;;18.70;99.90;;;;;;5041777;28;20036;-82
2023/07/18 07:57:17;;;;;;;9.50;4.78;;;18.90;99.90;;;;;;5040209;28;20051;-82
2023/07/18 07:59:43;;;;;;;8.05;3.58;;;19.10;99.90;;;;;;5026689;28;20967;-81
2023/07/18 08:02:09;;;;;;;7.97;3.22;;;19.20;99.90;;;;;;5012036;28;20045;-82
2023/07/18 08:04:36;;;;;;;10.73;3.50;;;19.20;99.90;;;;;;5024712;28;20040;-82
2023/07/18 08:07:03;;;;;;;11.75;3.85;;;19.30;99.90;;;;;;5021939;28;20681;-84
2023/07/18 08:09:29;;;;;;;11.18;3.90;;;19.40;99.90;;;;;;5035247;28;20131;-81
2023/07/18 08:11:54;;;;;;;8.63;3.28;;;19.50;99.90;;;;;;5052119;28;20119;-81
2023/07/18 08:14:21;;;;;;;18.95;5.68;;;19.60;99.90;;;;;;5066690;28;20394;-81
2023/07/18 08:16:48;;;;;;;6.70;3.38;;;19.70;99.90;;;;;;5032164;28;20109;-82
2023/07/18 08:19:15;;;;;;;11.15;4.07;;;19.80;99.90;;;;;;5051683;28;20076;-82
2023/07/18 08:21:41;;;;;;;13.82;4.43;;;20.00;99.90;;;;;;5033466;28;20417;-82
2023/07/18 08:24:07;;;;;;;14.75;4.00;;;20.00;99.90;;;;;;5036302;28;20048;-85
2023/07/18 08:26:33;;;;;;;13.23;3.35;;;20.00;99.90;;;;;;5049995;28;20077;-85
2023/07/18 08:28:58;;;;;;;10.57;3.95;;;20.10;99.90;;;;;;5031312;28;20097;-84
2023/07/18 08:31:24;;;;;;;9.93;4.40;;;20.10;99.90;;;;;;5036119;28;20036;-86
2023/07/18 08:33:50;;;;;;;10.57;3.35;;;20.10;99.90;;;;;;5035617;28;20127;-87
2023/07/18 08:36:16;;;;;;;13.43;3.80;;;20.00;99.90;;;;;;5035515;28;20573;-84
2023/07/18 08:38:49;;;;;;;11.70;3.80;;;19.90;99.90;;;;;;5033762;28;20578;-85
2023/07/18 08:41:15;;;;;;;;;;;20.00;99.90;;;;;;5019945;28;20048;-84
2023/07/18 08:43:40;;;;;;;7.88;3.28;;;20.20;99.90;;;;;;5046107;28;19917;-84
2023/07/18 08:46:07;;;;;;;8.70;3.35;;;20.50;99.90;;;;;;5073971;28;20056;-82
2023/07/18 08:48:33;;;;;;;10.02;3.38;;;20.70;99.90;;;;;;5015232;28;20041;-83
2023/07/18 08:50:59;;;;;;;8.27;3.38;;;20.80;99.90;;;;;;5034532;28;20040;-83
2023/07/18 08:53:25;;;;;;;5.72;3.05;;;21.00;99.90;;;;;;5033707;28;20045;-83
2023/07/18 08:55:52;;;;;;;6.50;2.53;;;21.00;99.90;;;;;;5025795;28;20044;-80
2023/07/18 08:58:22;;;;;;;7.25;2.50;;;21.20;99.90;;;;;;5005683;28;20481;-79
2023/07/18 09:00:48;;;;;;;7.80;2.40;;;21.30;99.90;;;;;;5027513;28;20048;-80
2023/07/18 09:03:14;;;;;;;9.20;2.67;;;21.50;99.90;;;;;;5105927;28;20119;-80
2023/07/18 09:05:40;;;;;;;11.68;3.13;;;21.60;99.90;;;;;;5022817;28;20044;-80
2023/07/18 09:08:06;;;;;;;5.10;2.17;;;21.70;99.90;;;;;;5038586;28;20036;-79
2023/07/18 09:10:33;;;;;;;8.05;2.40;;;21.80;99.90;;;;;;5106069;28;20048;-79
2023/07/18 09:13:04;;;;;;;6.40;2.08;;;21.90;99.90;;;;;;5047660;28;20045;-80
2023/07/18 09:15:33;;;;;;;4.65;2.00;;;22.00;99.90;;;;;;5052259;28;20103;-80
2023/07/18 09:18:01;;;;;;;5.97;2.05;;;22.00;99.90;;;;;;5035289;28;20063;-82
2023/07/18 09:20:29;;;;;;;5.85;1.98;;;22.00;99.90;;;;;;5035340;28;20400;-83
2023/07/18 09:22:56;;;;;;;5.32;1.70;;;22.00;99.90;;;;;;5034695;28;20045;-79
2023/07/18 09:25:24;;;;;;;4.68;2.00;;;22.00;99.90;;;;;;5035889;28;20478;-79
2023/07/18 09:27:50;;;;;;;7.00;1.70;;;22.00;99.90;;;;;;5051990;28;20045;-78
2023/07/18 09:30:27;;;;;;;5.82;1.92;;;21.90;99.90;;;;;;5051705;28;20045;-80
2023/07/18 09:32:53;;;;;;;9.15;2.38;;;22.00;99.90;;;;;;5035379;28;20041;-79
2023/07/18 09:35:18;;;;;;;3.17;1.67;;;21.90;99.90;;;;;;5018776;28;20044;-82
2023/07/18 09:37:46;;;;;;;3.90;1.90;;;22.00;99.90;;;;;;5003135;28;20045;-80
2023/07/18 09:40:14;;;;;;;5.25;1.70;;;22.10;99.90;;;;;;5051818;28;20045;-80
2023/07/18 09:42:46;;;;;;;5.13;1.55;;;22.30;99.90;;;;;;5035488;28;20033;-82
2023/07/18 09:45:14;;;;;;;3.90;1.57;;;22.50;98.90;;;;;;5051804;28;20033;-85
2023/07/18 09:47:43;;;;;;;4.40;1.73;;;22.60;99.50;;;;;;5034526;28;20083;-81
2023/07/18 09:50:14;;;;;;;3.90;1.52;;;22.50;99.70;;;;;;5051270;28;20120;-85
2023/07/18 09:52:51;;;;;;;3.50;1.67;;;22.50;99.30;;;;;;5034750;28;20037;-81
2023/07/18 09:55:21;;;;;;;4.82;2.40;;;22.40;98.50;;;;;;5034553;28;20510;-82
2023/07/18 09:57:54;;;;;;;5.43;1.98;;;22.40;97.70;;;;;;5067616;28;20053;-82
2023/07/18 10:00:20;;;;;;;3.88;2.35;;;22.50;98.80;;;;;;5031929;28;20395;-82
2023/07/18 10:02:46;;;;;;;4.63;1.60;;;22.60;98.20;;;;;;5034039;28;20025;-82
2023/07/18 10:05:14;;;;;;;1.58;1.42;;;22.70;98.50;;;;;;5052035;28;20441;-82
2023/07/18 10:07:41;;;;;;;6.13;2.03;;;22.70;96.80;;;;;;5034420;28;20510;-82
2023/07/18 10:10:09;;;;;;;3.00;1.50;;;22.90;97.90;;;;;;5014292;28;20045;-82
2023/07/18 10:12:56;;;;;;;3.35;1.50;;;23.00;97.80;;;;;;5051474;28;20036;-83
2023/07/18 10:15:22;;;;;;;3.65;1.60;;;23.10;96.60;;;;;;5066395;28;20041;-82
2023/07/18 10:17:49;;;;;;;2.80;1.42;;;23.20;95.60;;;;;;5031562;28;20449;-83
2023/07/18 10:20:19;;;;;;;3.35;1.70;;;23.30;95.90;;;;;;5032157;28;20120;-83
2023/07/18 10:22:57;;;;;;;6.00;1.60;;;23.30;94.30;;;;;;5031552;28;20044;-83
2023/07/18 10:25:25;;;;;;;4.22;1.58;;;23.40;95.10;;;;;;5032518;28;20042;-82
2023/07/18 10:27:51;;;;;;;2.42;1.23;;;23.40;94.30;;;;;;5047774;28;20450;-83
2023/07/18 10:30:19;;;;;;;3.50;1.40;;;23.50;94.30;;;;;;5051032;28;20073;-83
2023/07/18 10:32:54;;;;;;;2.15;1.25;;;23.40;93.10;;;;;;5033494;28;20569;-83
2023/07/18 10:35:25;;;;;;;3.85;1.70;;;23.50;91.80;;;;;;5016532;28;20423;-83
2023/07/18 10:37:53;;;;;;;4.97;1.27;;;23.40;92.70;;;;;;5016100;28;20107;-83
2023/07/18 10:40:35;;;;;;;4.70;1.77;;;23.50;93.10;;;;;;5049397;28;20081;-83
2023/07/18 10:43:02;;;;;;;3.08;1.80;;;23.40;91.50;;;;;;5032633;28;20116;-83
2023/07/18 10:45:28;;;;;;;3.85;1.30;;;23.50;92.90;;;;;;5032625;28;20041;-82
2023/07/18 10:47:54;;;;;;;5.07;1.83;;;23.70;92.60;;;;;;5065626;28;20033;-82
2023/07/18 10:50:19;;;;;;;3.05;1.58;;;23.70;91.70;;;;;;5032740;28;20136;-82
2023/07/18 10:52:45;;;;;;;4.60;1.70;;;23.70;91.50;;;;;;5016450;28;20406;-82
2023/07/18 10:55:12;;;;;;;4.57;1.35;;;24.00;92.00;;;;;;5032691;28;20094;-83
2023/07/18 10:57:38;;;;;;;3.30;1.30;;;24.00;91.10;;;;;;5032501;28;20049;-82
2023/07/18 11:00:06;;;;;;;1.88;1.05;;;23.90;90.40;;;;;;5032304;28;20077;-82
2023/07/18 11:02:37;;;;;;;2.38;1.35;;;23.90;89.10;;;;;;5032281;28;20044;-82
2023/07/18 11:05:14;;;;;;;2.47;1.10;;;24.00;90.00;;;;;;5032726;28;20398;-82
2023/07/18 11:07:42;;;;;;;1.98;1.38;;;24.10;89.70;;;;;;5015518;28;20046;-82
2023/07/18 11:10:09;;;;;;;2.95;1.45;;;24.30;90.50;;;;;;5030892;28;20531;-82
2023/07/18 11:12:35;;;;;;;1.70;1.10;;;24.40;90.00;;;;;;5034787;28;20150;-82
2023/07/18 11:15:06;;;;;;;2.25;1.52;;;24.40;87.60;;;;;;5015731;28;20137;-82
2023/07/18 11:17:33;;;;;;;1.77;1.15;;;24.50;88.90;;;;;;5063996;28;20053;-82
2023/07/18 11:19:58;;;;;;;2.47;1.35;;;24.60;89.70;;;;;;5014294;28;20430;-82
2023/07/18 11:22:25;;;;;;;3.95;1.08;;;24.70;88.80;;;;;;5030549;28;20041;-82
2023/07/18 11:24:55;;;;;;;1.77;0.80;;;24.80;85.80;;;;;;5046931;28;20119;-82
2023/07/18 11:27:29;;;;;;;4.85;2.05;;;24.70;83.90;;;;;;5064045;28;20091;-83
2023/07/18 11:30:20;;;;;;;3.50;1.50;;;24.80;83.30;;;;;;5013679;28;20038;-82
2023/07/18 11:32:46;;;;;;;2.28;1.42;;;24.70;83.60;;;;;;5012650;28;20084;-83
2023/07/18 11:35:18;;;;;;;3.75;1.35;;;24.60;83.40;;;;;;5030375;28;20057;-82
2023/07/18 11:37:46;;;;;;;3.88;1.40;;;24.40;82.50;;;;;;5046946;28;20042;-83
2023/07/18 11:40:21;;;;;;;3.42;1.38;;;24.30;84.50;;;;;;5046429;28;20045;-82
2023/07/18 11:42:52;;;;;;;2.88;1.50;;;24.20;85.50;;;;;;5030205;28;20040;-82
2023/07/18 11:45:23;;;;;;;3.40;1.63;;;24.20;86.30;;;;;;5014158;28;20465;-82
2023/07/18 11:47:52;;;;;;;2.65;1.45;;;23.90;84.40;;;;;;5047885;28;20470;-82
2023/07/18 11:50:18;;;;;;;3.95;1.70;;;24.00;85.60;;;;;;5030831;28;20038;-82
2023/07/18 11:52:49;;;;;;;2.40;1.23;;;24.10;85.80;;;;;;5030655;28;20083;-83
2023/07/18 11:55:16;;;;;;;2.88;1.30;;;24.40;85.00;;;;;;5031102;28;20038;-83
2023/07/18 11:57:42;;;;;;;4.15;1.40;;;24.60;85.10;;;;;;5030857;28;20096;-82
2023/07/18 12:00:10;;;;;;;2.92;1.67;;;24.70;84.70;;;;;;5030660;28;20127;-82
2023/07/18 12:02:37;;;;;;;3.90;1.50;;;24.90;84.80;;;;;;5030528;28;20049;-84
2023/07/18 12:05:04;;;;;;;1.77;1.05;;;25.10;84.10;;;;;;5047217;28;20093;-82
2023/07/18 12:07:29;;;;;;;2.95;1.25;;;25.20;83.70;;;;;;5047806;28;20049;-82
2023/07/18 12:09:55;;;;;;;2.08;1.25;;;25.00;82.00;;;;;;5031296;28;20056;-82
2023/07/18 12:12:23;;;;;;;1.42;1.20;;;24.80;82.20;;;;;;5049244;28;20533;-82
2023/07/18 12:14:50;;;;;;;2.17;1.20;;;24.70;82.40;;;;;;5051543;28;20041;-81
2023/07/18 12:17:16;;;;;;;2.35;1.20;;;24.80;81.10;;;;;;5034619;28;20128;-81
2023/07/18 12:19:42;;;;;;;3.25;1.20;;;24.60;81.20;;;;;;5017692;28;20080;-82
2023/07/18 12:22:08;;;;;;;3.63;1.25;;;24.40;81.70;;;;;;5049793;28;20420;-82
2023/07/18 12:24:34;;;;;;;4.05;1.60;;;24.60;82.60;;;;;;5033143;28;20061;-82
2023/07/18 12:26:59;;;;;;;3.33;1.42;;;24.90;82.30;;;;;;5016627;28;20053;-82
2023/07/18 12:29:25;;;;;;;2.72;1.30;;;25.00;82.20;;;;;;5032999;28;20088;-82
2023/07/18 12:31:53;;;;;;;4.53;1.40;;;25.30;82.50;;;;;;5017157;28;20052;-82
2023/07/18 12:34:19;;;;;;;2.13;1.25;;;25.70;82.70;;;;;;5033307;28;20083;-83
2023/07/18 12:36:45;;;;;;;3.33;1.48;;;25.60;79.40;;;;;;5032999;28;20048;-82
2023/07/18 12:39:11;;;;;;;2.58;1.38;;;25.70;79.20;;;;;;5020034;28;20040;-82
2023/07/18 12:41:37;;;;;;;2.67;1.40;;;25.80;79.70;;;;;;5035724;28;20072;-82
2023/07/18 12:44:03;;;;;;;2.60;1.20;;;25.90;80.00;;;;;;5022854;28;20115;-83
2023/07/18 12:46:29;;;;;;;2.75;1.40;;;25.80;79.20;;;;;;5041482;28;20131;-82